Time;durP1;ratioP1;P1;durP2;ratioP2;P2;SDS_P1;SDS_P2;PMS_P1;PMS_P2;Temp;Humidity;BMP_temperature;BMP_pressure;BME280_temperature;BME280_humidity;BME280_pressure;Samples;Min_cycle;Max_cycle;Signal;HPM_P1;HPM_P2
2022/08/10 00:04:07;;;;;;;4.28;2.45;;;22.80;99.90;;;;;;10330856;28;20197;-78
2022/08/10 00:09:10;;;;;;;2.58;2.38;;;22.70;99.90;;;;;;10327337;28;20232;-79
2022/08/10 00:14:12;;;;;;;2.58;2.00;;;22.70;99.90;;;;;;10332054;28;20268;-79
2022/08/10 00:19:15;;;;;;;5.78;2.60;;;22.60;99.90;;;;;;10330956;28;20225;-79
2022/08/10 00:24:19;;;;;;;6.25;3.28;;;22.70;99.90;;;;;;10330889;28;20544;-79
2022/08/10 00:29:22;;;;;;;2.75;2.55;;;22.70;99.90;;;;;;10329938;28;20271;-79
2022/08/10 00:34:25;;;;;;;3.38;2.72;;;22.70;99.90;;;;;;10329859;28;20291;-79
2022/08/10 00:39:28;;;;;;;4.07;2.40;;;22.70;99.90;;;;;;10328805;28;20228;-79
2022/08/10 00:44:43;;;;;;;2.97;2.67;;;22.60;99.90;;;;;;10331495;28;20741;-79
2022/08/10 00:49:45;;;;;;;4.85;2.95;;;22.60;99.90;;;;;;10305201;28;20240;-79
2022/08/10 00:54:48;;;;;;;2.55;2.35;;;22.60;99.90;;;;;;10320085;28;20713;-79
2022/08/10 00:59:52;;;;;;;4.28;2.83;;;22.60;99.90;;;;;;10306646;28;20255;-79
2022/08/10 01:05:07;;;;;;;2.67;2.47;;;22.60;99.90;;;;;;10330237;28;20209;-79
2022/08/10 01:10:31;;;;;;;2.70;2.50;;;22.50;99.90;;;;;;10328695;28;20271;-79
2022/08/10 01:15:52;;;;;;;2.78;2.58;;;22.50;99.90;;;;;;10330263;28;20306;-79
2022/08/10 01:21:13;;;;;;;3.03;2.80;;;22.50;99.90;;;;;;10315764;28;20660;-79
2022/08/10 01:26:56;;;;;;;2.58;2.38;;;22.60;99.90;;;;;;10329813;28;20240;-78
2022/08/10 01:32:05;;;;;;;2.72;2.40;;;22.50;99.90;;;;;;10328138;28;20232;-79
2022/08/10 01:37:14;;;;;;;3.45;2.60;;;22.50;99.90;;;;;;10328189;28;20264;-79
2022/08/10 01:42:18;;;;;;;2.97;2.75;;;22.50;99.90;;;;;;10327486;28;20233;-79
2022/08/10 01:52:53;;;;;;;3.50;2.50;;;22.50;99.90;;;;;;10326687;28;20622;-79
2022/08/10 01:57:59;;;;;;;2.55;2.35;;;22.50;99.90;;;;;;10324455;28;20253;-79
2022/08/10 02:03:04;;;;;;;3.55;3.17;;;22.50;99.90;;;;;;10322929;28;20216;-79
2022/08/10 02:08:11;;;;;;;2.80;2.28;;;22.50;99.90;;;;;;10327912;28;20236;-79
2022/08/10 02:13:16;;;;;;;3.08;2.78;;;22.50;99.90;;;;;;10328057;28;20290;-79
2022/08/10 02:18:21;;;;;;;5.03;2.90;;;22.50;99.90;;;;;;10319816;28;20319;-79
2022/08/10 02:23:28;;;;;;;3.22;2.95;;;22.50;99.90;;;;;;10288329;28;20202;-79
2022/08/10 02:28:33;;;;;;;3.08;2.78;;;22.50;99.90;;;;;;10315037;28;20635;-79
2022/08/10 02:33:37;;;;;;;2.88;2.40;;;22.50;99.90;;;;;;10327766;28;20228;-79
2022/08/10 02:39:02;;;;;;;2.85;2.65;;;22.50;99.90;;;;;;10319508;28;20263;-80
2022/08/10 02:44:11;;;;;;;2.67;2.45;;;22.50;99.90;;;;;;10326890;28;20835;-79
2022/08/10 02:49:41;;;;;;;3.03;2.72;;;22.50;99.90;;;;;;10326220;28;20240;-79
2022/08/10 02:54:52;;;;;;;3.00;2.67;;;22.50;99.90;;;;;;10329496;28;20252;-79
2022/08/10 02:59:59;;;;;;;3.25;2.58;;;22.50;99.90;;;;;;10306020;28;20237;-79
2022/08/10 03:05:09;;;;;;;4.47;2.60;;;22.50;99.90;;;;;;10325990;28;20271;-79
2022/08/10 03:10:19;;;;;;;5.00;3.17;;;22.40;99.90;;;;;;10300157;28;20233;-79
2022/08/10 03:15:23;;;;;;;2.95;2.72;;;22.40;99.90;;;;;;10300016;28;20614;-79
2022/08/10 03:20:30;;;;;;;3.80;3.03;;;22.40;99.90;;;;;;10330599;28;20251;-80
2022/08/10 03:25:42;;;;;;;2.80;2.30;;;22.40;99.90;;;;;;10337802;28;20241;-80
2022/08/10 03:30:58;;;;;;;2.80;2.60;;;22.40;99.90;;;;;;10339682;28;20236;-80
2022/08/10 03:36:00;;;;;;;2.80;2.53;;;22.40;99.90;;;;;;10338593;28;20694;-80
2022/08/10 03:41:35;;;;;;;3.70;2.42;;;22.40;99.90;;;;;;10337111;28;20222;-79
2022/08/10 03:46:41;;;;;;;3.75;2.75;;;22.40;99.90;;;;;;10331905;28;20232;-82
2022/08/10 03:51:47;;;;;;;3.65;3.15;;;22.40;99.90;;;;;;10337986;28;20627;-80
2022/08/10 03:56:52;;;;;;;3.47;3.17;;;22.40;99.90;;;;;;10335032;28;20231;-80
2022/08/10 04:01:54;;;;;;;3.25;3.03;;;22.40;99.90;;;;;;10338486;28;20268;-80
2022/08/10 04:07:17;;;;;;;3.70;2.97;;;22.40;99.90;;;;;;10331975;28;20751;-80
2022/08/10 04:12:20;;;;;;;3.40;3.10;;;22.40;99.90;;;;;;10331778;28;20652;-80
2022/08/10 04:17:24;;;;;;;2.72;2.53;;;22.40;99.90;;;;;;10326701;28;20874;-80
2022/08/10 04:22:50;;;;;;;3.05;2.60;;;22.40;99.90;;;;;;10328108;28;20763;-80
2022/08/10 04:27:54;;;;;;;3.17;2.80;;;22.40;99.90;;;;;;10293762;28;20768;-80
2022/08/10 04:33:00;;;;;;;2.95;2.60;;;22.40;99.90;;;;;;10329458;28;20748;-80
2022/08/10 04:38:03;;;;;;;3.00;2.72;;;22.40;99.90;;;;;;10329877;28;20248;-79
2022/08/10 04:43:06;;;;;;;5.53;2.80;;;22.50;99.90;;;;;;10331187;28;20229;-80
2022/08/10 04:48:14;;;;;;;3.25;2.95;;;22.50;99.90;;;;;;10328396;28;20637;-80
2022/08/10 04:53:37;;;;;;;6.05;4.68;;;22.40;99.90;;;;;;10330727;28;20660;-80
2022/08/10 04:59:00;;;;;;;16.20;8.48;;;22.20;99.90;;;;;;10330142;28;20302;-80
2022/08/10 05:04:03;;;;;;;11.60;6.53;;;21.60;99.90;;;;;;10319853;28;20225;-80
2022/08/10 05:09:25;;;;;;;7.45;5.60;;;21.40;99.90;;;;;;10328585;28;20732;-80
2022/08/10 05:14:28;;;;;;;10.40;4.95;;;21.70;99.90;;;;;;10305404;28;20241;-80
2022/08/10 05:19:30;;;;;;;6.10;4.38;;;21.90;99.90;;;;;;10290540;28;20225;-80
2022/08/10 05:24:53;;;;;;;8.90;4.57;;;22.00;99.90;;;;;;10327266;28;20677;-80
2022/08/10 05:29:55;;;;;;;7.82;4.75;;;22.10;99.90;;;;;;10330292;28;20295;-80
2022/08/10 05:35:04;;;;;;;6.30;4.38;;;22.20;99.90;;;;;;10327211;28;20280;-80
2022/08/10 05:40:07;;;;;;;4.72;3.67;;;22.20;99.90;;;;;;10320093;28;20283;-80
2022/08/10 05:45:19;;;;;;;5.93;4.25;;;22.30;99.90;;;;;;10329000;28;20319;-84
2022/08/10 05:50:26;;;;;;;6.18;3.97;;;22.30;99.90;;;;;;10325677;28;20236;-80
2022/08/10 05:55:30;;;;;;;6.13;4.10;;;22.40;99.90;;;;;;10327034;28;20770;-80
2022/08/10 06:00:35;;;;;;;4.40;4.00;;;22.40;99.90;;;;;;10328154;28;20237;-80
2022/08/10 06:05:46;;;;;;;3.97;3.67;;;22.40;99.90;;;;;;10322733;28;20521;-80
2022/08/10 06:10:52;;;;;;;3.90;3.60;;;22.50;99.90;;;;;;10321359;28;20241;-80
2022/08/10 06:16:16;;;;;;;5.22;3.60;;;22.50;99.90;;;;;;10297945;28;20311;-80
2022/08/10 06:21:19;;;;;;;4.35;3.50;;;22.60;99.90;;;;;;10346198;28;20227;-80
2022/08/10 06:26:22;;;;;;;5.22;3.88;;;22.50;99.90;;;;;;10322349;28;20323;-79
2022/08/10 06:31:26;;;;;;;4.80;3.97;;;22.60;99.90;;;;;;10340631;28;20263;-79
2022/08/10 06:36:29;;;;;;;4.35;3.95;;;22.70;99.90;;;;;;10345229;28;20676;-80
2022/08/10 06:41:40;;;;;;;4.65;3.30;;;22.70;99.90;;;;;;10329902;28;20237;-80
2022/08/10 06:47:05;;;;;;;4.43;4.03;;;22.70;99.90;;;;;;10310147;28;20287;-80
2022/08/10 06:52:11;;;;;;;4.22;3.58;;;22.80;99.90;;;;;;10319506;28;20303;-80
2022/08/10 06:57:23;;;;;;;4.35;3.95;;;22.90;99.90;;;;;;10306486;28;20257;-78
2022/08/10 07:02:35;;;;;;;7.30;3.80;;;22.90;99.90;;;;;;10326315;28;20228;-78
2022/08/10 07:07:41;;;;;;;5.30;4.35;;;23.00;99.90;;;;;;10324320;28;20627;-78
2022/08/10 07:12:49;;;;;;;6.22;3.83;;;23.10;99.90;;;;;;10322351;28;20244;-78
2022/08/10 07:17:53;;;;;;;7.15;4.50;;;23.10;99.90;;;;;;10326534;28;20256;-78
2022/08/10 07:22:56;;;;;;;6.70;4.32;;;23.10;99.90;;;;;;10322663;28;20233;-78
2022/08/10 07:28:20;;;;;;;4.00;3.63;;;23.00;99.90;;;;;;10325544;28;20702;-79
2022/08/10 07:33:24;;;;;;;4.10;3.70;;;23.10;99.90;;;;;;10322272;28;20322;-79
2022/08/10 07:38:30;;;;;;;3.90;3.60;;;23.30;99.90;;;;;;10321597;28;20253;-80
2022/08/10 07:43:37;;;;;;;3.55;3.25;;;23.40;99.90;;;;;;10328470;28;20283;-78
2022/08/10 07:49:10;;;;;;;4.60;3.90;;;23.40;99.90;;;;;;10320957;28;20687;-78
2022/08/10 07:54:24;;;;;;;7.07;3.67;;;23.40;99.90;;;;;;10328791;28;20271;-78
2022/08/10 07:59:41;;;;;;;6.00;3.38;;;23.40;99.90;;;;;;10328520;28;20283;-78
2022/08/10 08:04:45;;;;;;;4.30;3.30;;;23.50;99.90;;;;;;10330143;28;20611;-78
2022/08/10 08:09:49;;;;;;;9.60;3.08;;;23.60;99.90;;;;;;10324637;28;20248;-78
2022/08/10 08:15:01;;;;;;;3.25;2.97;;;23.60;99.90;;;;;;10357676;28;20294;-78
2022/08/10 08:20:25;;;;;;;4.90;2.47;;;23.60;99.90;;;;;;10292325;28;20229;-78
2022/08/10 08:25:32;;;;;;;5.85;4.05;;;23.70;99.90;;;;;;10328216;28;20728;-78
2022/08/10 08:30:37;;;;;;;4.35;2.72;;;23.70;99.90;;;;;;10309893;28;20689;-79
2022/08/10 08:35:41;;;;;;;3.95;3.45;;;23.60;99.90;;;;;;10315610;28;20319;-79
2022/08/10 08:40:59;;;;;;;4.68;3.42;;;23.80;99.90;;;;;;10347667;28;20232;-79
2022/08/10 08:46:33;;;;;;;4.85;3.15;;;23.80;99.90;;;;;;10310866;28;20232;-79
2022/08/10 08:52:03;;;;;;;3.38;3.08;;;23.80;99.90;;;;;;10299990;28;20296;-79
2022/08/10 08:57:32;;;;;;;4.57;3.38;;;23.90;99.90;;;;;;10274740;28;20283;-79
2022/08/10 09:03:20;;;;;;;3.75;3.35;;;23.90;99.90;;;;;;10323055;28;20289;-79
2022/08/10 09:08:59;;;;;;;6.97;4.10;;;24.20;99.90;;;;;;10313632;28;20241;-79
2022/08/10 09:14:29;;;;;;;4.32;3.60;;;24.20;99.90;;;;;;10289141;28;20746;-78
2022/08/10 09:20:08;;;;;;;5.97;3.70;;;24.40;99.90;;;;;;10327052;28;20263;-78
2022/08/10 09:25:33;;;;;;;3.20;2.90;;;24.60;99.90;;;;;;10289511;28;20241;-77
2022/08/10 09:30:45;;;;;;;3.30;3.00;;;24.70;99.90;;;;;;10304210;28;20676;-78
2022/08/10 09:36:22;;;;;;;3.88;3.42;;;24.70;99.90;;;;;;10328498;28;20734;-77
2022/08/10 09:41:48;;;;;;;3.33;3.03;;;24.70;99.90;;;;;;10326985;28;20287;-78
2022/08/10 09:47:04;;;;;;;3.40;3.10;;;25.00;99.90;;;;;;10307522;28;20249;-79
2022/08/10 09:52:31;;;;;;;4.32;2.97;;;24.80;99.90;;;;;;10315917;28;20644;-80
2022/08/10 09:58:11;;;;;;;5.05;2.45;;;25.00;99.50;;;;;;10286633;28;20335;-79
2022/08/10 10:03:26;;;;;;;3.75;3.45;;;25.10;99.20;;;;;;10287067;28;20233;-79
2022/08/10 10:08:42;;;;;;;5.13;3.78;;;25.00;99.20;;;;;;10301700;28;20295;-79
2022/08/10 10:14:03;;;;;;;4.53;2.55;;;25.00;99.70;;;;;;10286759;28;20732;-79
2022/08/10 10:19:38;;;;;;;6.95;2.85;;;24.50;99.90;;;;;;10286105;28;20288;-79
2022/08/10 10:24:51;;;;;;;4.32;2.95;;;24.40;99.90;;;;;;10285698;28;20237;-79
2022/08/10 10:30:01;;;;;;;5.32;2.80;;;24.20;99.90;;;;;;10301228;28;20683;-79
2022/08/10 10:35:24;;;;;;;3.58;2.72;;;24.40;99.90;;;;;;10286568;28;20715;-79
2022/08/10 10:40:42;;;;;;;3.85;2.55;;;24.70;98.50;;;;;;10301092;28;20245;-79
2022/08/10 10:45:57;;;;;;;3.20;2.90;;;25.30;99.40;;;;;;10300915;28;20221;-79
2022/08/10 10:51:08;;;;;;;4.25;3.30;;;25.00;99.20;;;;;;10286371;28;20233;-79
2022/08/10 10:56:43;;;;;;;3.03;2.70;;;24.90;98.60;;;;;;10308666;28;20251;-79
2022/08/10 11:02:24;;;;;;;4.03;3.03;;;25.00;99.30;;;;;;10326762;28;20755;-79
2022/08/10 11:07:48;;;;;;;5.10;2.88;;;24.60;99.90;;;;;;10343875;28;20278;-78
2022/08/10 11:13:23;;;;;;;3.42;2.70;;;24.40;98.90;;;;;;10326249;28;20240;-79
2022/08/10 11:19:11;;;;;;;5.70;3.13;;;24.30;99.90;;;;;;10331802;28;20256;-79
2022/08/10 11:24:22;;;;;;;4.13;3.38;;;24.20;99.90;;;;;;10334351;28;20281;-79
2022/08/10 11:29:45;;;;;;;6.93;2.67;;;24.60;99.90;;;;;;10325561;28;20240;-79
2022/08/10 11:35:02;;;;;;;2.78;2.45;;;24.70;99.30;;;;;;10330605;28;20264;-78
2022/08/10 11:40:39;;;;;;;4.15;2.05;;;25.30;97.10;;;;;;10334142;28;20256;-79
2022/08/10 11:46:04;;;;;;;3.14;2.10;;;25.80;96.60;;;;;;9979273;28;10001033;-81
2022/08/10 11:51:19;;;;;;;3.80;2.00;;;26.20;95.00;;;;;;10328956;28;20241;-78
2022/08/10 11:56:37;;;;;;;2.95;2.42;;;26.60;95.70;;;;;;10330002;28;20716;-79
2022/08/10 12:01:41;;;;;;;4.60;2.45;;;26.80;95.50;;;;;;10326549;28;20284;-78
2022/08/10 12:06:46;;;;;;;5.38;2.50;;;27.10;95.20;;;;;;10324879;28;20673;-78
2022/08/10 12:11:59;;;;;;;3.33;2.05;;;27.30;95.00;;;;;;10326276;28;20228;-79
2022/08/10 12:17:09;;;;;;;3.20;2.53;;;27.50;94.60;;;;;;10324784;28;20260;-78
2022/08/10 12:22:24;;;;;;;2.95;2.25;;;27.60;94.40;;;;;;10324871;28;20224;-79
2022/08/10 12:27:47;;;;;;;2.25;2.03;;;27.60;94.60;;;;;;10301899;28;20236;-78
2022/08/10 12:32:52;;;;;;;3.63;2.20;;;27.40;94.80;;;;;;10326552;28;20302;-78
2022/08/10 12:38:08;;;;;;;2.08;1.92;;;27.30;95.20;;;;;;9979238;28;10000873;-78
2022/08/10 12:43:24;;;;;;;2.40;2.20;;;27.20;95.60;;;;;;10318716;28;20244;-80
2022/08/10 12:49:08;;;;;;;1.65;1.55;;;27.20;95.80;;;;;;10325141;28;20232;-78
2022/08/10 12:54:17;;;;;;;2.58;1.90;;;27.20;96.00;;;;;;10325595;28;20752;-79
2022/08/10 12:59:39;;;;;;;2.50;1.60;;;27.30;94.30;;;;;;10317220;28;20256;-78
2022/08/10 13:04:48;;;;;;;2.95;2.00;;;27.30;95.70;;;;;;10317730;28;20279;-78
2022/08/10 13:09:51;;;;;;;2.00;1.80;;;27.40;95.80;;;;;;10328200;28;20694;-79
2022/08/10 13:15:14;;;;;;;2.00;1.85;;;27.30;95.90;;;;;;10326586;28;20232;-79
2022/08/10 13:20:40;;;;;;;3.80;1.95;;;27.00;96.40;;;;;;10326312;28;20309;-80
2022/08/10 13:25:47;;;;;;;3.28;2.08;;;27.00;96.70;;;;;;10308082;28;20291;-80
2022/08/10 13:30:52;;;;;;;1.88;1.52;;;27.00;96.50;;;;;;10307380;28;20296;-80
2022/08/10 13:35:57;;;;;;;3.30;1.80;;;27.10;96.80;;;;;;10344896;28;20259;-79
2022/08/10 13:41:05;;;;;;;1.85;1.70;;;27.20;96.60;;;;;;10318510;28;20271;-78
2022/08/10 13:46:14;;;;;;;2.83;2.00;;;27.20;96.60;;;;;;10319130;28;21189;-78
2022/08/10 13:51:30;;;;;;;5.22;2.08;;;27.20;96.60;;;;;;10311367;28;20322;-78
2022/08/10 13:57:13;;;;;;;1.75;1.65;;;26.80;96.80;;;;;;10307987;28;20264;-78
2022/08/10 14:02:30;;;;;;;2.00;1.80;;;26.80;97.50;;;;;;10308307;28;20275;-78
2022/08/10 14:07:37;;;;;;;2.35;2.10;;;26.70;97.80;;;;;;10346700;28;20227;-80
2022/08/10 14:12:56;;;;;;;2.33;1.85;;;26.60;97.50;;;;;;10323584;28;20901;-79
2022/08/10 14:18:00;;;;;;;3.95;1.70;;;26.70;93.70;;;;;;10325337;28;20252;-83
2022/08/10 14:23:12;;;;;;;4.47;1.65;;;26.70;89.60;;;;;;10362871;28;20337;-80
2022/08/10 14:28:17;;;;;;;4.07;2.47;;;26.80;93.30;;;;;;10359041;28;20260;-78
2022/08/10 14:33:23;;;;;;;3.35;2.50;;;26.80;91.70;;;;;;10326591;28;20258;-78
2022/08/10 14:38:29;;;;;;;2.20;1.80;;;26.60;91.90;;;;;;10328292;28;20311;-78
2022/08/10 14:43:40;;;;;;;5.05;1.67;;;26.50;93.70;;;;;;10327468;28;20201;-78
2022/08/10 14:48:46;;;;;;;2.30;2.00;;;26.30;94.70;;;;;;10327447;28;20232;-78
2022/08/10 14:53:53;;;;;;;4.18;2.55;;;26.30;95.50;;;;;;10324239;28;20255;-79
2022/08/10 14:58:58;;;;;;;5.72;2.03;;;26.40;94.40;;;;;;10326301;28;20252;-79
2022/08/10 15:04:15;;;;;;;4.53;1.90;;;26.40;94.50;;;;;;10327476;28;20275;-79
2022/08/10 15:09:22;;;;;;;2.78;2.00;;;26.30;90.30;;;;;;10326140;28;20232;-79
2022/08/10 15:14:26;;;;;;;3.70;2.22;;;26.20;96.20;;;;;;10325898;28;20208;-79
2022/08/10 15:19:52;;;;;;;2.10;1.80;;;26.30;96.20;;;;;;10326069;28;20710;-78
2022/08/10 15:25:16;;;;;;;2.03;1.90;;;26.40;92.50;;;;;;10326039;28;20703;-80
2022/08/10 15:30:30;;;;;;;2.20;1.58;;;26.40;96.20;;;;;;10323793;28;20233;-82
2022/08/10 15:40:58;;;;;;;2.80;1.70;;;26.20;96.40;;;;;;10316649;28;20680;-79
2022/08/10 15:46:13;;;;;;;1.95;1.83;;;26.30;92.00;;;;;;10311650;28;20237;-79
2022/08/10 15:51:35;;;;;;;5.40;1.88;;;26.20;96.60;;;;;;10342994;28;20757;-79
2022/08/10 15:57:11;;;;;;;3.70;2.13;;;26.20;95.90;;;;;;10345101;28;20220;-79
2022/08/10 16:02:19;;;;;;;2.00;1.58;;;26.20;95.40;;;;;;10344022;28;20256;-80
2022/08/10 16:07:49;;;;;;;2.35;1.80;;;26.20;95.50;;;;;;10319643;28;20209;-79
2022/08/10 16:13:03;;;;;;;2.00;1.80;;;26.10;96.50;;;;;;10334871;28;20201;-80
2022/08/10 16:18:28;;;;;;;1.50;1.40;;;26.10;97.50;;;;;;10333310;28;20767;-80
2022/08/10 16:23:37;;;;;;;1.70;1.52;;;26.10;97.20;;;;;;10333247;28;20200;-80
2022/08/10 16:28:44;;;;;;;2.35;1.70;;;26.00;93.70;;;;;;10331392;28;20302;-79
2022/08/10 16:33:52;;;;;;;2.35;1.75;;;26.00;96.50;;;;;;10330938;28;20229;-80
2022/08/10 16:38:57;;;;;;;2.00;1.80;;;26.00;97.80;;;;;;10328306;28;20275;-79
2022/08/10 16:44:01;;;;;;;6.05;1.90;;;26.00;97.80;;;;;;10332669;28;20243;-78
2022/08/10 16:49:04;;;;;;;2.95;1.65;;;26.00;97.00;;;;;;10328870;28;20299;-78
2022/08/10 16:54:09;;;;;;;4.18;2.08;;;26.00;98.20;;;;;;10331822;28;20267;-79
2022/08/10 16:59:14;;;;;;;2.58;2.15;;;26.00;93.90;;;;;;10343881;28;20727;-79
2022/08/10 17:04:23;;;;;;;7.28;1.80;;;26.00;98.50;;;;;;10331992;28;20286;-79
2022/08/10 17:09:29;;;;;;;6.57;2.60;;;25.90;96.70;;;;;;10330090;28;20209;-79
2022/08/10 17:14:31;;;;;;;6.88;2.20;;;25.80;97.90;;;;;;10331925;28;20201;-79
2022/08/10 17:19:38;;;;;;;4.07;2.80;;;25.70;95.70;;;;;;10329729;28;20663;-79
2022/08/10 17:24:49;;;;;;;3.08;2.40;;;25.50;97.70;;;;;;10361666;28;20192;-79
2022/08/10 17:29:56;;;;;;;4.90;2.28;;;25.50;97.90;;;;;;10339087;28;20221;-79
2022/08/10 17:35:17;;;;;;;3.95;2.60;;;25.40;97.50;;;;;;10326633;28;20236;-79
2022/08/10 17:40:27;;;;;;;5.68;2.17;;;25.30;95.70;;;;;;10313420;28;20729;-79
2022/08/10 17:45:33;;;;;;;6.03;2.80;;;25.30;97.90;;;;;;10316849;28;20606;-78
2022/08/10 17:50:52;;;;;;;3.97;2.50;;;25.20;96.60;;;;;;10328869;28;20233;-78
2022/08/10 17:55:56;;;;;;;5.10;2.85;;;25.10;98.00;;;;;;10327446;28;20288;-79
2022/08/10 18:01:01;;;;;;;3.85;2.53;;;25.10;98.00;;;;;;10328946;28;20631;-78
2022/08/10 18:06:26;;;;;;;4.32;2.15;;;25.00;97.90;;;;;;10330300;28;20276;-79
2022/08/10 18:11:33;;;;;;;2.53;2.03;;;24.80;98.20;;;;;;10321767;28;20283;-79
2022/08/10 18:16:38;;;;;;;4.15;2.30;;;24.60;98.50;;;;;;10327515;28;20279;-79
2022/08/10 18:21:46;;;;;;;2.10;1.90;;;24.60;98.60;;;;;;10326040;28;20271;-78
2022/08/10 18:26:51;;;;;;;6.40;2.42;;;24.50;98.70;;;;;;10325418;28;20248;-78
2022/08/10 18:31:59;;;;;;;5.38;2.13;;;24.50;98.90;;;;;;10288310;28;20379;-78
2022/08/10 18:37:06;;;;;;;8.45;2.28;;;24.40;99.10;;;;;;10287693;28;20783;-78
2022/08/10 18:42:25;;;;;;;5.13;1.75;;;24.40;99.10;;;;;;10325597;28;20310;-78
2022/08/10 18:47:50;;;;;;;5.28;1.98;;;24.30;99.20;;;;;;10325430;28;20255;-78
2022/08/10 18:53:12;;;;;;;3.03;2.17;;;24.20;99.40;;;;;;10324974;28;20232;-78
2022/08/10 18:58:29;;;;;;;6.07;2.22;;;24.10;99.60;;;;;;10325025;28;20729;-78
2022/08/10 19:04:00;;;;;;;3.17;1.80;;;24.00;99.60;;;;;;10319065;28;20302;-78
2022/08/10 19:09:18;;;;;;;5.65;1.65;;;24.00;99.80;;;;;;10318372;28;20287;-78
2022/08/10 19:15:19;;;;;;;5.65;2.05;;;24.00;99.70;;;;;;10325036;28;20241;-77
2022/08/10 19:21:02;;;;;;;4.53;1.80;;;23.90;99.70;;;;;;10302769;28;20288;-79
2022/08/10 19:26:44;;;;;;;6.03;1.95;;;23.90;99.80;;;;;;10294088;28;20779;-78
2022/08/10 19:32:07;;;;;;;7.53;2.38;;;23.80;99.90;;;;;;10143471;29;20251;-79
2022/08/10 19:37:45;;;;;;;4.22;2.03;;;23.80;99.90;;;;;;10125493;29;20310;-78
2022/08/10 19:43:12;;;;;;;8.13;1.85;;;23.80;99.90;;;;;;10141350;29;20321;-78
2022/08/10 19:48:31;;;;;;;8.40;2.30;;;23.70;99.90;;;;;;10149044;29;20302;-79
2022/08/10 19:53:49;;;;;;;11.20;2.00;;;23.60;99.90;;;;;;10169432;29;20628;-79
2022/08/10 19:59:33;;;;;;;5.60;2.00;;;23.60;99.90;;;;;;10137947;29;20321;-79
2022/08/10 20:05:16;;;;;;;4.03;1.85;;;;;;;;;;10267765;28;21141;-79
2022/08/10 20:10:34;;;;;;;4.03;1.75;;;23.60;99.70;;;;;;10368455;28;20286;-78
2022/08/10 20:16:27;;;;;;;3.80;1.90;;;23.60;99.80;;;;;;10361915;28;20228;-79
2022/08/10 20:21:45;;;;;;;10.80;2.25;;;23.50;99.90;;;;;;10311854;28;20291;-79
2022/08/10 20:26:57;;;;;;;11.35;3.53;;;23.40;99.80;;;;;;10328463;28;20244;-78
2022/08/10 20:32:30;;;;;;;5.55;2.05;;;23.50;99.70;;;;;;10315560;28;20233;-79
2022/08/10 20:38:06;;;;;;;7.20;1.90;;;23.50;99.60;;;;;;10332478;28;20295;-79
2022/08/10 20:43:40;;;;;;;8.68;1.85;;;23.50;99.50;;;;;;10330008;28;20241;-80
2022/08/10 20:49:20;;;;;;;8.52;2.35;;;23.40;99.70;;;;;;10329958;28;20244;-80
2022/08/10 20:54:31;;;;;;;4.57;1.88;;;23.40;99.70;;;;;;10330505;28;20298;-78
2022/08/10 20:59:46;;;;;;;5.93;1.70;;;23.30;99.90;;;;;;10321670;28;20678;-79
2022/08/10 21:05:22;;;;;;;5.28;1.85;;;23.20;99.90;;;;;;10331898;28;20228;-79
2022/08/10 21:10:54;;;;;;;5.43;2.17;;;23.10;99.90;;;;;;10330501;28;20571;-79
2022/08/10 21:16:14;;;;;;;5.10;2.05;;;23.20;99.90;;;;;;10320979;28;20233;-79
2022/08/10 21:21:24;;;;;;;4.65;2.30;;;23.10;99.90;;;;;;10303749;28;20661;-79
2022/08/10 23:01:40;;;;;;;3.25;1.90;;;23.10;99.90;;;;;;10302824;28;20253;-80
2022/08/10 23:07:16;;;;;;;5.40;2.22;;;23.20;99.90;;;;;;10284324;28;20649;-79
2022/08/10 23:13:10;;;;;;;4.57;2.10;;;23.20;99.90;;;;;;10287574;28;20269;-79
2022/08/10 23:23:51;;;;;;;2.10;1.83;;;23.10;99.90;;;;;;10294226;28;20633;-79
2022/08/10 23:28:54;;;;;;;5.45;2.65;;;23.10;99.90;;;;;;10293379;28;20377;-79
2022/08/10 23:34:01;;;;;;;4.88;1.90;;;23.10;99.90;;;;;;10294074;28;20257;-79
2022/08/10 23:39:06;;;;;;;5.10;2.10;;;23.10;99.90;;;;;;10332943;28;20236;-79
2022/08/10 23:44:34;;;;;;;2.83;1.83;;;23.10;99.90;;;;;;10334398;28;20369;-79
2022/08/10 23:49:37;;;;;;;3.78;1.90;;;23.10;99.90;;;;;;10302608;28;20272;-79
2022/08/10 23:54:51;;;;;;;3.88;1.95;;;23.10;99.90;;;;;;10297907;28;20232;-79
